createdAt,value
2022-08-01T00:01:32.606Z,4.05
2022-08-01T00:04:00.880Z,4.97
2022-08-01T00:06:30.119Z,2.55
2022-08-01T00:08:58.407Z,3.05
2022-08-01T00:11:26.601Z,2.90
2022-08-01T00:13:56.265Z,4.80
2022-08-01T00:16:24.589Z,4.82
2022-08-01T00:18:53.252Z,4.18
2022-08-01T00:21:21.459Z,3.05
2022-08-01T00:23:49.942Z,6.03
2022-08-01T00:26:18.150Z,4.10
2022-08-01T00:28:46.388Z,2.97
2022-08-01T00:31:15.948Z,2.97
2022-08-01T00:33:44.179Z,3.45
2022-08-01T00:36:12.294Z,3.85
2022-08-01T00:38:40.525Z,5.45
2022-08-01T00:41:08.749Z,2.45
2022-08-01T00:43:36.909Z,3.30
2022-08-01T00:46:05.052Z,5.75
2022-08-01T00:48:34.688Z,2.38
2022-08-01T00:51:03.734Z,1.67
2022-08-01T00:53:52.006Z,2.50
2022-08-01T00:56:21.203Z,4.28
2022-08-01T00:58:50.414Z,2.92
2022-08-01T01:01:19.239Z,3.78
2022-08-01T01:04:08.327Z,4.28
2022-08-01T01:06:46.598Z,2.80
2022-08-01T01:09:33.141Z,2.80
2022-08-01T01:12:12.235Z,4.05
2022-08-01T01:14:47.531Z,3.33
2022-08-01T01:17:48.244Z,2.70
2022-08-01T01:20:13.902Z,2.20
2022-08-01T01:22:55.789Z,2.75
2022-08-01T01:25:39.812Z,2.78
2022-08-01T01:28:14.527Z,2.63
2022-08-01T01:30:48.571Z,2.00
2022-08-01T01:33:18.632Z,3.20
2022-08-01T01:35:52.524Z,4.18
2022-08-01T01:38:23.996Z,3.08
2022-08-01T01:40:54.829Z,3.88
2022-08-01T01:43:28.890Z,2.92
2022-08-01T01:46:05.600Z,3.00
2022-08-01T01:48:38.457Z,2.38
2022-08-01T01:51:07.120Z,3.22
2022-08-01T01:53:37.161Z,3.40
2022-08-01T01:56:05.539Z,3.70
2022-08-01T01:58:36.075Z,2.00
2022-08-01T02:01:14.498Z,3.58
2022-08-01T02:03:44.690Z,3.80
2022-08-01T02:06:16.552Z,2.40
2022-08-01T02:08:45.858Z,2.15
2022-08-01T02:11:23.279Z,1.98
2022-08-01T02:13:56.096Z,1.77
2022-08-01T02:16:29.844Z,1.95
2022-08-01T02:18:58.296Z,2.17
2022-08-01T02:21:31.798Z,2.17
2022-08-01T02:24:06.154Z,3.47
2022-08-01T02:26:35.486Z,2.70
2022-08-01T02:29:08.711Z,3.00
2022-08-01T02:31:45.875Z,2.58
2022-08-01T02:34:18.830Z,1.25
2022-08-01T02:36:48.691Z,4.68
2022-08-01T02:39:19.657Z,1.83
2022-08-01T02:41:52.062Z,2.28
2022-08-01T02:44:25.948Z,3.65
2022-08-01T02:47:03.081Z,1.50
2022-08-01T02:49:35.373Z,2.70
2022-08-01T02:52:07.245Z,2.25
2022-08-01T02:54:57.220Z,1.92
2022-08-01T02:57:33.593Z,1.45
2022-08-01T03:00:16.198Z,0.88
2022-08-01T03:02:46.586Z,3.38
2022-08-01T03:05:15.664Z,2.20
2022-08-01T03:07:44.175Z,1.83
2022-08-01T03:10:13.390Z,1.42
2022-08-01T03:12:42.494Z,1.33
2022-08-01T03:15:12.603Z,3.40
2022-08-01T03:17:44.990Z,2.58
2022-08-01T03:20:18.686Z,4.13
2022-08-01T03:22:48.787Z,1.73
2022-08-01T03:25:19.163Z,1.95
2022-08-01T03:27:53.683Z,3.20
2022-08-01T03:30:23.467Z,3.17
2022-08-01T03:32:51.665Z,1.42
2022-08-01T03:35:22.524Z,2.63
2022-08-01T03:38:15.181Z,1.85
2022-08-01T03:40:45.599Z,2.65
2022-08-01T03:43:21.054Z,2.33
2022-08-01T03:45:53.430Z,4.20
2022-08-01T03:48:26.644Z,2.53
2022-08-01T03:50:57.050Z,1.35
2022-08-01T03:53:28.791Z,5.90
2022-08-01T03:56:00.591Z,1.98
2022-08-01T03:58:29.958Z,2.28
2022-08-01T04:00:59.263Z,3.88
2022-08-01T04:03:28.562Z,3.38
2022-08-01T04:05:58.313Z,2.88
2022-08-01T04:08:36.729Z,2.97
2022-08-01T04:11:05.081Z,2.60
2022-08-01T04:13:36.747Z,3.33
2022-08-01T04:16:06.371Z,3.72
2022-08-01T04:18:34.516Z,4.00
2022-08-01T04:21:04.115Z,4.53
2022-08-01T04:23:33.611Z,2.50
2022-08-01T04:26:05.936Z,2.45
2022-08-01T04:28:38.017Z,2.58
2022-08-01T04:31:11.320Z,3.08
2022-08-01T04:33:42.370Z,2.50
2022-08-01T04:36:14.796Z,1.65
2022-08-01T04:38:47.229Z,3.22
2022-08-01T04:41:16.410Z,2.85
2022-08-01T04:43:45.035Z,2.85
2022-08-01T04:46:15.121Z,2.40
2022-08-01T04:48:44.125Z,3.22
2022-08-01T04:51:17.647Z,2.72
2022-08-01T04:53:47.392Z,3.33
2022-08-01T04:56:16.472Z,1.67
2022-08-01T04:58:45.781Z,1.65
2022-08-01T05:01:15.253Z,2.85
2022-08-01T05:03:43.904Z,2.42
2022-08-01T05:06:12.080Z,1.73
2022-08-01T05:08:42.366Z,2.72
2022-08-01T05:11:12.399Z,2.47
2022-08-01T05:13:41.733Z,4.00
2022-08-01T05:16:09.908Z,2.38
2022-08-01T05:18:38.189Z,1.65
2022-08-01T05:21:07.277Z,3.88
2022-08-01T05:23:43.294Z,5.95
2022-08-01T05:26:15.054Z,2.25
2022-08-01T05:28:43.952Z,2.65
2022-08-01T05:31:12.167Z,2.17
2022-08-01T05:33:40.421Z,4.45
2022-08-01T05:36:08.641Z,3.47
2022-08-01T05:38:36.869Z,5.82
2022-08-01T05:41:05.114Z,2.70
2022-08-01T05:43:34.672Z,3.25
2022-08-01T05:46:02.957Z,1.65
2022-08-01T05:48:31.313Z,2.58
2022-08-01T05:50:59.717Z,1.67
2022-08-01T05:53:28.377Z,2.15
2022-08-01T05:55:56.580Z,3.17
2022-08-01T05:58:24.910Z,3.22
2022-08-01T06:00:54.544Z,2.42
2022-08-01T06:03:22.670Z,2.47
2022-08-01T06:05:51.019Z,3.80
2022-08-01T06:08:19.224Z,2.72
2022-08-01T06:10:47.612Z,3.38
2022-08-01T06:13:15.913Z,2.70
2022-08-01T06:15:44.049Z,1.90
2022-08-01T06:18:13.665Z,3.72
2022-08-01T06:20:41.944Z,1.92
2022-08-01T06:23:28.508Z,5.15
2022-08-01T06:25:59.005Z,1.50
2022-08-01T06:28:27.248Z,3.55
2022-08-01T06:30:55.484Z,4.28
2022-08-01T06:33:24.997Z,4.18
2022-08-01T06:35:53.244Z,2.28
2022-08-01T06:38:21.504Z,2.58
2022-08-01T06:40:49.904Z,2.22
2022-08-01T06:43:19.650Z,2.35
2022-08-01T06:45:47.831Z,2.35
2022-08-01T06:48:15.982Z,2.28
2022-08-01T06:50:45.515Z,2.47
2022-08-01T06:53:13.693Z,5.30
2022-08-01T06:55:41.850Z,4.07
2022-08-01T06:58:10.147Z,2.75
2022-08-01T07:00:38.424Z,4.72
2022-08-01T07:03:06.816Z,4.25
2022-08-01T07:05:34.966Z,2.85
2022-08-01T07:08:04.584Z,3.08
2022-08-01T07:10:32.934Z,3.65
2022-08-01T07:13:01.169Z,3.33
2022-08-01T07:15:29.384Z,4.18
2022-08-01T07:17:58.226Z,3.72
2022-08-01T07:20:26.486Z,3.67
2022-08-01T07:22:54.546Z,3.33
2022-08-01T07:25:26.194Z,2.50
2022-08-01T07:27:54.325Z,3.47
2022-08-01T07:30:22.599Z,2.42
2022-08-01T07:32:51.031Z,3.45
2022-08-01T07:35:19.321Z,2.28
2022-08-01T07:37:49.024Z,2.90
2022-08-01T07:40:19.163Z,3.35
2022-08-01T07:42:48.933Z,3.88
2022-08-01T07:45:17.402Z,3.38
2022-08-01T07:47:46.152Z,3.15
2022-08-01T07:50:14.640Z,3.00
2022-08-01T07:52:42.879Z,3.45
2022-08-01T07:55:11.887Z,4.20
2022-08-01T07:57:45.099Z,2.50
2022-08-01T08:00:15.568Z,2.50
2022-08-01T08:02:43.858Z,2.42
2022-08-01T08:05:12.065Z,3.42
2022-08-01T08:07:40.491Z,4.03
2022-08-01T08:10:09.655Z,3.45
2022-08-01T08:12:37.781Z,2.80
2022-08-01T08:15:07.595Z,4.20
2022-08-01T08:17:37.208Z,2.28
2022-08-01T08:20:09.183Z,2.33
2022-08-01T08:22:38.901Z,3.10
2022-08-01T08:25:08.418Z,2.17
2022-08-01T08:27:37.596Z,2.53
2022-08-01T08:30:08.651Z,2.17
2022-08-01T08:32:38.564Z,3.22
2022-08-01T08:35:08.223Z,3.00
2022-08-01T08:37:47.266Z,3.33
2022-08-01T08:40:17.723Z,2.30
2022-08-01T08:42:47.789Z,3.47
2022-08-01T08:45:15.927Z,2.70
2022-08-01T08:47:47.922Z,2.75
2022-08-01T08:50:16.513Z,6.43
2022-08-01T08:52:47.073Z,2.88
2022-08-01T08:55:17.666Z,2.85
2022-08-01T08:57:48.718Z,3.72
2022-08-01T09:00:17.474Z,2.97
2022-08-01T09:02:49.914Z,2.17
2022-08-01T09:05:20.121Z,3.97
2022-08-01T09:07:48.494Z,4.30
2022-08-01T09:10:16.593Z,2.40
2022-08-01T09:13:11.730Z,4.50
2022-08-01T09:15:41.568Z,3.47
2022-08-01T09:18:27.212Z,4.25
2022-08-01T09:21:10.261Z,3.42
2022-08-01T09:23:53.817Z,3.33
2022-08-01T09:26:31.458Z,2.70
2022-08-01T09:29:01.238Z,2.35
2022-08-01T09:31:37.864Z,2.25
2022-08-01T09:34:10.139Z,2.80
2022-08-01T09:36:54.172Z,3.15
2022-08-01T09:39:25.131Z,5.22
2022-08-01T09:41:55.026Z,2.78
2022-08-01T09:44:44.073Z,3.35
2022-08-01T09:47:15.809Z,2.65
2022-08-01T09:49:50.962Z,2.55
2022-08-01T09:52:25.996Z,2.20
2022-08-01T09:54:59.080Z,3.80
2022-08-01T09:57:27.749Z,3.40
2022-08-01T10:00:00.393Z,3.53
2022-08-01T10:02:32.928Z,6.50
2022-08-01T10:05:08.404Z,2.80
2022-08-01T10:07:43.568Z,2.55
2022-08-01T10:10:14.537Z,2.67
2022-08-01T10:12:45.705Z,1.88
2022-08-01T10:15:18.057Z,3.05
2022-08-01T10:17:57.353Z,3.90
2022-08-01T10:20:30.802Z,2.88
2022-08-01T10:23:06.298Z,2.35
2022-08-01T10:25:44.023Z,4.22
2022-08-01T10:28:21.614Z,4.38
2022-08-01T10:30:53.563Z,3.80
2022-08-01T10:33:51.898Z,2.67
2022-08-01T10:36:14.780Z,1.92
2022-08-01T10:38:45.256Z,3.75
2022-08-01T10:41:16.597Z,2.20
2022-08-01T10:43:47.032Z,2.42
2022-08-01T10:46:15.881Z,2.08
2022-08-01T10:48:53.100Z,4.82
2022-08-01T10:51:27.064Z,3.45
2022-08-01T10:54:12.845Z,1.95
2022-08-01T10:56:44.673Z,2.60
2022-08-01T10:59:49.170Z,2.85
2022-08-01T11:02:10.230Z,1.95
2022-08-01T11:04:53.289Z,2.47
2022-08-01T11:07:26.256Z,2.17
2022-08-01T11:10:14.545Z,3.42
2022-08-01T11:12:45.279Z,9.25
2022-08-01T11:15:30.023Z,2.13
2022-08-01T11:18:01.095Z,2.65
2022-08-01T11:20:32.154Z,2.20
2022-08-01T11:23:36.211Z,2.25
2022-08-01T11:26:29.448Z,2.35
2022-08-01T11:29:22.433Z,3.35
2022-08-01T11:31:52.828Z,1.40
2022-08-01T11:34:21.695Z,2.03
2022-08-01T11:36:59.225Z,1.80
2022-08-01T11:39:29.599Z,2.63
2022-08-01T11:42:17.969Z,2.45
2022-08-01T11:44:53.285Z,2.42
2022-08-01T11:47:49.938Z,4.05
2022-08-01T11:50:37.959Z,1.95
2022-08-01T11:53:09.124Z,2.50
2022-08-01T11:55:47.685Z,1.60
2022-08-01T11:58:29.311Z,2.67
2022-08-01T12:01:00.762Z,1.88
2022-08-01T12:03:33.854Z,1.73
2022-08-01T12:06:02.867Z,2.60
2022-08-01T12:08:33.823Z,2.88
2022-08-01T12:11:06.839Z,3.80
2022-08-01T12:13:44.145Z,5.18
2022-08-01T12:16:13.059Z,3.35
2022-08-01T12:18:42.261Z,2.63
2022-08-01T12:21:10.992Z,2.50
2022-08-01T12:23:39.343Z,3.03
2022-08-01T12:26:08.987Z,2.30
2022-08-01T12:28:57.218Z,1.77
2022-08-01T12:31:33.726Z,2.10
2022-08-01T12:34:28.737Z,2.20
2022-08-01T12:36:57.873Z,1.85
2022-08-01T12:39:32.706Z,1.90
2022-08-01T12:42:02.492Z,3.67
2022-08-01T12:44:32.748Z,2.70
2022-08-01T12:47:02.901Z,2.53
2022-08-01T12:49:31.618Z,2.40
2022-08-01T12:52:00.299Z,1.40
2022-08-01T12:54:28.489Z,2.25
2022-08-01T12:56:58.013Z,4.43
2022-08-01T12:59:29.955Z,5.03
2022-08-01T13:01:59.576Z,1.45
2022-08-01T13:04:27.984Z,2.95
2022-08-01T13:06:56.438Z,2.10
2022-08-01T13:09:24.714Z,3.55
2022-08-01T13:12:06.464Z,2.10
2022-08-01T13:14:36.725Z,3.88
2022-08-01T13:17:10.131Z,1.90
2022-08-01T13:19:48.124Z,2.13
2022-08-01T13:22:16.450Z,2.97
2022-08-01T13:24:44.642Z,2.90
2022-08-01T13:27:24.196Z,3.58
2022-08-01T13:29:54.340Z,1.80
2022-08-01T13:32:29.713Z,2.63
2022-08-01T13:35:03.859Z,3.08
2022-08-01T13:37:32.378Z,1.60
2022-08-01T13:40:00.854Z,2.75
2022-08-01T13:42:32.862Z,2.00
2022-08-01T13:45:02.840Z,3.22
2022-08-01T13:47:32.518Z,1.42
2022-08-01T13:50:03.796Z,1.52
2022-08-01T13:52:32.819Z,1.92
2022-08-01T13:55:01.253Z,2.60
2022-08-01T13:57:36.344Z,2.25
2022-08-01T14:00:09.599Z,1.80
2022-08-01T14:02:40.252Z,2.05
2022-08-01T14:05:09.071Z,3.08
2022-08-01T14:07:38.215Z,4.03
2022-08-01T14:10:18.698Z,3.03
2022-08-01T14:12:48.571Z,2.55
2022-08-01T14:15:38.245Z,2.33
2022-08-01T14:18:07.800Z,1.90
2022-08-01T14:20:39.017Z,1.40
2022-08-01T14:23:09.035Z,4.47
2022-08-01T14:26:00.405Z,2.25
2022-08-01T14:28:28.788Z,2.25
2022-08-01T14:30:58.925Z,3.08
2022-08-01T14:33:27.767Z,3.47
2022-08-01T14:36:06.026Z,2.00
2022-08-01T14:38:46.230Z,2.42
2022-08-01T14:41:15.250Z,2.95
2022-08-01T14:43:43.624Z,5.18
2022-08-01T14:46:13.915Z,3.92
2022-08-01T14:48:42.619Z,3.17
2022-08-01T14:51:11.056Z,4.80
2022-08-01T14:53:40.327Z,2.50
2022-08-01T14:56:12.331Z,1.60
2022-08-01T14:58:40.483Z,3.28
2022-08-01T15:01:08.818Z,5.18
2022-08-01T15:03:38.446Z,1.92
2022-08-01T15:06:07.467Z,5.38
2022-08-01T15:08:35.830Z,2.17
2022-08-01T15:11:04.014Z,3.30
2022-08-01T15:13:32.162Z,2.47
2022-08-01T15:16:00.608Z,3.20
2022-08-01T15:18:29.434Z,2.85
2022-08-01T15:20:59.183Z,2.47
2022-08-01T15:23:27.333Z,4.03
2022-08-01T15:25:55.523Z,3.22
2022-08-01T15:28:23.629Z,2.50
2022-08-01T15:30:51.822Z,7.50
2022-08-01T15:33:22.167Z,8.40
2022-08-01T15:35:50.365Z,9.85
2022-08-01T15:38:23.393Z,10.57
2022-08-01T15:40:51.528Z,9.27
2022-08-01T15:43:19.888Z,6.38
2022-08-01T15:45:49.643Z,7.07
2022-08-01T15:48:18.465Z,9.27
2022-08-01T15:50:46.813Z,4.65
2022-08-01T15:53:15.505Z,6.22
2022-08-01T15:55:52.492Z,8.18
2022-08-01T15:58:21.558Z,5.55
2022-08-01T16:00:50.289Z,5.25
2022-08-01T16:03:18.712Z,6.93
2022-08-01T16:05:46.959Z,5.55
2022-08-01T16:08:15.911Z,4.15
2022-08-01T16:10:45.433Z,4.55
2022-08-01T16:13:13.634Z,5.22
2022-08-01T16:15:42.310Z,3.97
2022-08-01T16:18:13.722Z,5.60
2022-08-01T16:20:45.396Z,5.28
2022-08-01T16:23:15.570Z,3.30
2022-08-01T16:25:45.245Z,4.63
2022-08-01T16:28:14.504Z,4.97
2022-08-01T16:30:50.912Z,6.65
2022-08-01T16:33:40.434Z,4.70
2022-08-01T16:36:18.115Z,5.38
2022-08-01T16:38:46.948Z,7.07
2022-08-01T16:41:19.489Z,8.82
2022-08-01T16:43:53.802Z,14.15
2022-08-01T16:46:24.990Z,6.47
2022-08-01T16:48:53.972Z,7.57
2022-08-01T16:51:22.448Z,9.77
2022-08-01T16:53:50.828Z,5.68
2022-08-01T16:56:21.375Z,7.40
2022-08-01T16:58:49.745Z,6.32
2022-08-01T17:01:59.616Z,4.85
2022-08-01T17:04:07.908Z,8.35
2022-08-01T17:06:36.150Z,5.55
2022-08-01T17:09:04.828Z,8.13
2022-08-01T17:11:34.513Z,6.22
2022-08-01T17:14:02.709Z,8.32
2022-08-01T17:16:30.865Z,5.68
2022-08-01T17:18:59.051Z,6.32
2022-08-01T17:21:27.798Z,7.43
2022-08-01T17:23:56.277Z,9.30
2022-08-01T17:26:24.528Z,7.78
2022-08-01T17:28:54.175Z,7.55
2022-08-01T17:31:22.369Z,8.00
2022-08-01T17:33:54.791Z,6.68
2022-08-01T17:36:23.766Z,6.50
2022-08-01T17:38:51.988Z,6.00
2022-08-01T17:41:20.193Z,8.48
2022-08-01T17:43:48.394Z,6.97
2022-08-01T17:46:18.400Z,13.30
2022-08-01T17:48:46.729Z,10.52
2022-08-01T17:51:19.382Z,12.20
2022-08-01T17:53:55.772Z,9.27
2022-08-01T17:56:26.499Z,9.05
2022-08-01T17:58:55.041Z,8.50
2022-08-01T18:01:26.903Z,7.28
2022-08-01T18:03:57.458Z,9.65
2022-08-01T18:06:27.265Z,9.07
2022-08-01T18:08:59.525Z,8.20
2022-08-01T18:11:28.147Z,7.43
2022-08-01T18:13:57.100Z,17.85
2022-08-01T18:16:29.395Z,9.30
2022-08-01T18:18:57.590Z,8.43
2022-08-01T18:21:26.039Z,6.32
2022-08-01T18:23:54.239Z,7.30
2022-08-01T18:26:23.161Z,6.75
2022-08-01T18:28:51.558Z,6.72
2022-08-01T18:31:20.583Z,7.05
2022-08-01T18:33:50.427Z,6.60
2022-08-01T18:36:31.819Z,6.97
2022-08-01T18:39:04.673Z,7.80
2022-08-01T18:41:34.235Z,6.72
2022-08-01T18:44:04.275Z,9.02
2022-08-01T18:46:37.976Z,7.78
2022-08-01T18:49:10.071Z,6.03
2022-08-01T18:51:43.936Z,7.93
2022-08-01T18:54:13.198Z,7.25
2022-08-01T18:56:42.180Z,6.18
2022-08-01T18:59:10.683Z,8.98
2022-08-01T19:01:39.814Z,8.60
2022-08-01T19:04:09.717Z,6.78
2022-08-01T19:06:38.732Z,6.55
2022-08-01T19:09:09.359Z,8.48
2022-08-01T19:11:37.792Z,8.85
2022-08-01T19:14:06.136Z,15.07
2022-08-01T19:16:34.974Z,11.30
2022-08-01T19:19:06.874Z,7.45
2022-08-01T19:21:40.268Z,5.43
2022-08-01T19:24:23.136Z,5.20
2022-08-01T19:26:54.703Z,6.82
2022-08-01T19:29:24.378Z,5.90
2022-08-01T19:32:06.249Z,5.43
2022-08-01T19:34:37.468Z,8.30
2022-08-01T19:37:08.166Z,5.45
2022-08-01T19:39:36.659Z,6.80
2022-08-01T19:42:05.592Z,7.05
2022-08-01T19:44:34.659Z,7.82
2022-08-01T19:47:03.551Z,7.82
2022-08-01T19:49:31.901Z,5.97
2022-08-01T19:52:02.283Z,6.28
2022-08-01T19:54:36.390Z,6.93
2022-08-01T19:57:07.028Z,7.55
2022-08-01T19:59:37.272Z,7.68
2022-08-01T20:02:06.373Z,7.57
2022-08-01T20:04:36.232Z,8.55
2022-08-01T20:07:04.875Z,7.57
2022-08-01T20:09:35.306Z,9.65
2022-08-01T20:12:04.230Z,9.23
2022-08-01T20:14:32.746Z,12.32
2022-08-01T20:17:01.562Z,9.70
2022-08-01T20:19:30.572Z,12.88
2022-08-01T20:22:03.538Z,12.15
2022-08-01T20:24:41.060Z,11.50
2022-08-01T20:27:12.609Z,9.68
2022-08-01T20:29:41.329Z,11.32
2022-08-01T20:32:10.623Z,11.32
2022-08-01T20:34:40.265Z,11.30
2022-08-01T20:37:12.891Z,11.55
2022-08-01T20:39:45.256Z,9.98
2022-08-01T20:42:14.743Z,9.43
2022-08-01T20:44:45.296Z,10.25
2022-08-01T20:47:15.253Z,8.23
2022-08-01T20:49:45.462Z,12.55
2022-08-01T20:52:15.550Z,8.80
2022-08-01T20:54:45.089Z,11.13
2022-08-01T20:57:20.318Z,9.88
2022-08-01T20:59:57.278Z,8.38
2022-08-01T21:02:38.521Z,10.90
2022-08-01T21:05:10.778Z,12.32
2022-08-01T21:07:43.928Z,10.77
2022-08-01T21:10:16.195Z,9.70
2022-08-01T21:12:49.390Z,10.02
2022-08-01T21:15:27.473Z,11.60
2022-08-01T21:18:01.710Z,9.40
2022-08-01T21:20:32.023Z,10.00
2022-08-01T21:23:15.852Z,13.63
2022-08-01T21:25:45.624Z,9.73
2022-08-01T21:28:15.573Z,11.00
2022-08-01T21:30:55.612Z,11.40
2022-08-01T21:33:30.217Z,9.02
2022-08-01T21:36:06.153Z,7.28
2022-08-01T21:38:36.914Z,11.85
2022-08-01T21:41:08.971Z,8.63
2022-08-01T21:43:38.768Z,9.13
2022-08-01T21:46:06.936Z,6.60
2022-08-01T21:48:36.547Z,8.75
2022-08-01T21:51:10.996Z,7.47
2022-08-01T21:53:50.286Z,8.50
2022-08-01T21:56:30.910Z,7.85
2022-08-01T21:59:04.917Z,7.28
2022-08-01T22:01:49.999Z,7.13
2022-08-01T22:04:29.391Z,9.90
2022-08-01T22:07:00.029Z,6.50
2022-08-01T22:09:29.784Z,8.30
2022-08-01T22:12:03.996Z,6.35
2022-08-01T22:14:34.512Z,5.95
2022-08-01T22:17:02.919Z,6.53
2022-08-01T22:19:44.162Z,5.53
2022-08-01T22:22:45.383Z,5.88
2022-08-01T22:25:04.718Z,6.25
2022-08-01T22:28:05.651Z,7.20
2022-08-01T22:30:24.706Z,6.45
2022-08-01T22:33:07.522Z,6.25
2022-08-01T22:35:45.108Z,5.20
2022-08-01T22:38:13.385Z,6.55
2022-08-01T22:40:48.374Z,6.05
2022-08-01T22:43:26.134Z,6.45
2022-08-01T22:46:08.221Z,5.88
2022-08-01T22:48:42.562Z,4.90
2022-08-01T22:51:22.452Z,6.63
2022-08-01T22:53:57.350Z,4.45
2022-08-01T22:56:25.661Z,3.95
2022-08-01T22:58:57.873Z,3.88
2022-08-01T23:01:29.614Z,3.67
2022-08-01T23:04:00.211Z,3.88
2022-08-01T23:06:37.791Z,4.57
2022-08-01T23:09:07.965Z,3.80
2022-08-01T23:11:37.402Z,5.07
2022-08-01T23:14:07.044Z,4.53
2022-08-01T23:16:37.882Z,4.18
2022-08-01T23:19:06.172Z,3.70
2022-08-01T23:21:38.726Z,3.78
2022-08-01T23:24:10.773Z,3.67
2022-08-01T23:26:39.243Z,3.97
2022-08-01T23:29:09.885Z,4.40
2022-08-01T23:31:58.215Z,4.47
2022-08-01T23:34:26.264Z,4.07
2022-08-01T23:36:54.535Z,3.65
2022-08-01T23:39:22.705Z,3.63
2022-08-01T23:41:57.583Z,3.55
2022-08-01T23:44:28.315Z,3.40
2022-08-01T23:46:56.560Z,3.83
2022-08-01T23:49:24.929Z,3.40
2022-08-01T23:51:53.268Z,3.10
2022-08-01T23:54:21.541Z,3.63
2022-08-01T23:56:49.970Z,3.45
2022-08-01T23:59:18.292Z,4.93
